createdAt,value
2019-02-02T22:09:25.040Z,7.27
2019-02-02T22:11:54.298Z,8.50
2019-02-02T22:14:23.636Z,8.50
2019-02-02T22:16:53.161Z,8.53
2019-02-02T22:19:22.319Z,7.97
2019-02-02T22:21:52.637Z,8.57
2019-02-02T22:24:22.062Z,8.63
2019-02-02T22:26:49.572Z,9.47
2019-02-02T22:29:16.044Z,9.23
2019-02-02T22:33:55.891Z,9.23
2019-02-02T22:36:27.442Z,9.23
2019-02-02T22:38:50.383Z,8.57
2019-02-02T22:41:16.663Z,9.23
2019-02-02T22:43:43.161Z,8.90
2019-02-02T22:46:09.759Z,9.73
2019-02-02T22:48:36.011Z,9.70
2019-02-02T22:51:02.763Z,9.63
2019-02-02T22:53:29.020Z,11.03
2019-02-02T22:55:55.285Z,10.07
2019-02-02T22:58:21.828Z,11.00
2019-02-02T23:00:59.828Z,11.63
2019-02-02T23:03:32.806Z,12.17
2019-02-02T23:06:05.944Z,11.87
2019-02-02T23:08:45.067Z,11.03
2019-02-02T23:11:42.497Z,11.83
2019-02-02T23:14:24.054Z,13.13
2019-02-02T23:16:50.287Z,13.83
2019-02-02T23:19:16.535Z,13.10
2019-02-02T23:21:42.883Z,12.70
2019-02-02T23:24:09.158Z,13.43
2019-02-02T23:26:35.388Z,13.10
2019-02-02T23:29:02.365Z,14.40
2019-02-02T23:31:28.925Z,12.75
2019-02-02T23:33:55.165Z,14.67
2019-02-02T23:36:21.434Z,14.83
2019-02-02T23:38:47.658Z,13.73
2019-02-02T23:41:13.921Z,14.67
2019-02-02T23:43:40.147Z,14.63
2019-02-02T23:46:07.083Z,15.80
2019-02-02T23:48:33.407Z,15.43
2019-02-02T23:50:59.758Z,15.83
2019-02-02T23:53:25.987Z,17.03
2019-02-02T23:55:52.245Z,16.93
2019-02-02T23:58:18.567Z,18.50
